Time;durP1;ratioP1;P1;durP2;ratioP2;P2;SDS_P1;SDS_P2;PMS_P1;PMS_P2;Temp;Humidity;BMP_temperature;BMP_pressure;BME280_temperature;BME280_humidity;BME280_pressure;Samples;Min_cycle;Max_cycle;Signal;HPM_P1;HPM_P2
2022/11/28 00:00:18;;;;;;;43.17;16.00;;;;;;;-0.37;100.00;95866.03;1032145;28;20030;-69
2022/11/28 00:00:51;;;;;;;39.88;16.75;;;;;;;-0.34;100.00;95869.00;1035543;28;20025;-67
2022/11/28 00:01:24;;;;;;;37.14;16.30;;;;;;;-0.36;100.00;95865.84;1030696;28;20496;-68
2022/11/28 00:01:54;;;;;;;39.66;15.98;;;;;;;-0.31;100.00;95863.47;1030810;28;20026;-69
2022/11/28 00:02:24;;;;;;;47.10;16.83;;;;;;;-0.31;100.00;95871.22;1034391;28;20517;-70
2022/11/28 00:02:55;;;;;;;39.75;16.63;;;;;;;-0.32;100.00;95867.06;1034253;28;20037;-70
2022/11/28 00:03:25;;;;;;;38.92;16.38;;;;;;;-0.32;100.00;95861.91;1034037;28;20040;-68
2022/11/28 00:03:56;;;;;;;38.22;16.48;;;;;;;-0.36;100.00;95852.97;1030067;28;20797;-70
2022/11/28 00:04:26;;;;;;;39.17;16.42;;;;;;;-0.29;100.00;95860.72;1026338;28;20041;-69
2022/11/28 00:04:57;;;;;;;35.65;16.15;;;;;;;-0.36;100.00;95860.69;1034341;28;20061;-69
2022/11/28 00:05:27;;;;;;;36.90;16.65;;;;;;;-0.32;100.00;95861.91;1034152;28;20030;-69
2022/11/28 00:06:05;;;;;;;34.45;15.10;;;;;;;-0.35;100.00;95859.69;1037865;28;20696;-69
2022/11/28 00:06:37;;;;;;;33.22;15.24;;;;;;;-0.38;100.00;95854.91;1038392;28;20029;-69
2022/11/28 00:07:09;;;;;;;35.24;15.74;;;;;;;-0.31;100.00;95865.28;1030168;28;20046;-69
2022/11/28 00:07:40;;;;;;;34.90;15.76;;;;;;;-0.29;100.00;95866.69;1033683;28;20034;-69
2022/11/28 00:08:10;;;;;;;32.05;15.25;;;;;;;-0.27;100.00;95867.28;1034177;28;20033;-70
2022/11/28 00:08:41;;;;;;;32.10;14.57;;;;;;;-0.27;100.00;95861.31;1037729;28;20021;-70
2022/11/28 00:09:12;;;;;;;33.20;15.52;;;;;;;-0.32;100.00;95861.09;1036659;28;20046;-70
2022/11/28 00:09:42;;;;;;;32.05;15.95;;;;;;;-0.36;100.00;95862.47;1025217;28;20110;-69
2022/11/28 00:10:12;;;;;;;34.00;15.18;;;;;;;-0.37;100.00;95866.84;1028508;28;20350;-70
2022/11/28 00:10:43;;;;;;;36.78;14.25;;;;;;;-0.40;100.00;95861.25;1031910;28;20026;-69
2022/11/28 00:11:14;;;;;;;30.17;14.15;;;;;;;-0.44;100.00;95866.00;1028683;28;20027;-69
2022/11/28 00:11:45;;;;;;;30.72;14.80;;;;;;;-0.56;100.00;95850.28;1035951;28;20029;-70
2022/11/28 00:12:16;;;;;;;31.14;14.48;;;;;;;-0.44;100.00;95858.25;1031828;28;20065;-70
2022/11/28 00:12:46;;;;;;;29.40;14.27;;;;;;;-0.58;100.00;95851.44;1032925;28;20085;-69
2022/11/28 00:13:16;;;;;;;35.63;15.20;;;;;;;-0.51;100.00;95852.28;1030625;28;20037;-69
2022/11/28 00:13:47;;;;;;;30.30;14.98;;;;;;;-0.49;100.00;95861.41;1025989;28;20042;-69
2022/11/28 00:14:17;;;;;;;30.23;14.55;;;;;;;-0.47;100.00;95861.22;1032568;28;20023;-69
2022/11/28 00:14:48;;;;;;;32.85;15.60;;;;;;;-0.46;100.00;95855.09;1034458;28;20488;-68
2022/11/28 00:15:18;;;;;;;36.47;14.77;;;;;;;-0.50;100.00;95843.59;1042755;28;20013;-69
2022/11/28 00:15:58;;;;;;;36.78;14.70;;;;;;;-0.54;100.00;95848.31;1042272;28;20033;-69
2022/11/28 00:16:29;;;;;;;37.55;14.98;;;;;;;-0.51;100.00;95847.91;1038385;28;20044;-69
2022/11/28 00:16:59;;;;;;;35.10;15.98;;;;;;;-0.51;100.00;95836.81;1034458;28;20030;-70
2022/11/28 00:17:30;;;;;;;35.20;14.73;;;;;;;-0.52;100.00;95835.22;1034535;28;20033;-69
2022/11/28 00:18:00;;;;;;;39.90;16.67;;;;;;;-0.52;100.00;95824.91;1030044;28;20035;-68
2022/11/28 00:18:31;;;;;;;34.70;15.30;;;;;;;-0.55;100.00;95831.25;1026488;28;20015;-69
2022/11/28 00:19:01;;;;;;;33.58;15.30;;;;;;;-0.53;100.00;95828.50;1028584;28;20504;-70
2022/11/28 00:19:32;;;;;;;46.53;16.58;;;;;;;-0.49;100.00;95840.00;1026292;28;20054;-68
2022/11/28 00:20:03;;;;;;;35.22;14.90;;;;;;;-0.52;100.00;95837.81;1030333;28;20041;-67
2022/11/28 00:20:33;;;;;;;40.33;16.40;;;;;;;-0.51;100.00;95842.75;1033943;28;20042;-68
2022/11/28 00:21:05;;;;;;;47.72;15.63;;;;;;;-0.54;100.00;95842.34;1034496;28;20396;-68
2022/11/28 00:21:36;;;;;;;42.16;15.30;;;;;;;-0.58;100.00;95841.94;1042622;28;20044;-68
2022/11/28 00:22:06;;;;;;;46.15;16.67;;;;;;;-0.57;100.00;95837.56;1038272;28;20032;-67
2022/11/28 00:22:36;;;;;;;38.72;15.57;;;;;;;-0.59;100.00;95837.78;1030730;28;20025;-69
2022/11/28 00:23:07;;;;;;;38.78;15.13;;;;;;;-0.58;100.00;95841.13;1030285;28;20022;-68
2022/11/28 00:23:37;;;;;;;39.78;15.90;;;;;;;-0.60;100.00;95833.63;1026426;28;20050;-69
2022/11/28 00:24:08;;;;;;;43.58;16.90;;;;;;;-0.57;100.00;95838.38;1032748;28;20037;-68
2022/11/28 00:24:39;;;;;;;45.15;16.38;;;;;;;-0.54;100.00;95838.00;1033900;28;20127;-69
2022/11/28 00:25:09;;;;;;;38.83;15.98;;;;;;;-0.54;100.00;95839.75;1026198;28;20019;-68
2022/11/28 00:25:40;;;;;;;35.72;15.68;;;;;;;-0.55;100.00;95833.03;1023436;28;20476;-70
2022/11/28 00:26:14;;;;;;;39.47;15.60;;;;;;;-0.55;100.00;95840.75;1020045;28;20023;-69
2022/11/28 00:26:44;;;;;;;34.04;14.98;;;;;;;-0.48;100.00;95841.59;1023557;28;20027;-68
2022/11/28 00:27:15;;;;;;;34.95;15.40;;;;;;;-0.49;100.00;95837.44;1022102;28;20023;-69
2022/11/28 00:27:45;;;;;;;34.08;15.60;;;;;;;-0.53;100.00;95831.06;1026150;28;20031;-69
2022/11/28 00:28:16;;;;;;;44.75;16.33;;;;;;;-0.52;100.00;95838.59;1026349;28;20393;-69
2022/11/28 00:28:46;;;;;;;36.90;16.50;;;;;;;-0.55;100.00;95844.13;1026370;28;20027;-69
2022/11/28 00:29:17;;;;;;;37.60;15.23;;;;;;;-0.54;100.00;95838.00;1027750;28;20042;-69
2022/11/28 00:29:47;;;;;;;40.65;16.13;;;;;;;-0.50;100.00;95836.63;1030275;28;20023;-69
2022/11/28 00:30:17;;;;;;;40.50;16.58;;;;;;;-0.48;100.00;95842.38;1034443;28;20018;-69
2022/11/28 00:30:48;;;;;;;38.08;16.25;;;;;;;-0.49;100.00;95840.00;1034860;28;20022;-68
2022/11/28 00:31:20;;;;;;;33.03;15.43;;;;;;;-0.50;100.00;95831.47;1036762;28;20022;-68
2022/11/28 00:31:51;;;;;;;35.72;16.04;;;;;;;-0.45;100.00;95840.41;1026341;28;20018;-69
2022/11/28 00:32:21;;;;;;;40.45;16.85;;;;;;;-0.45;100.00;95835.25;1021746;28;20023;-69
2022/11/28 00:32:52;;;;;;;42.47;17.55;;;;;;;-0.44;100.00;95840.22;1025945;28;20049;-70
2022/11/28 00:33:22;;;;;;;34.72;15.77;;;;;;;-0.44;100.00;95831.69;1026181;28;20038;-68
2022/11/28 00:33:53;;;;;;;40.20;16.48;;;;;;;-0.44;100.00;95835.06;1026125;28;20061;-67
2022/11/28 00:34:23;;;;;;;42.65;15.82;;;;;;;-0.43;100.00;95836.69;1030076;28;20472;-67
2022/11/28 00:34:53;;;;;;;38.50;15.65;;;;;;;-0.48;100.00;95833.84;1038453;28;20732;-68
2022/11/28 00:35:24;;;;;;;32.83;14.98;;;;;;;-0.58;100.00;95821.31;1038172;28;20029;-68
2022/11/28 00:35:59;;;;;;;44.60;15.93;;;;;;;-0.51;100.00;95832.44;1034306;28;20033;-69
2022/11/28 00:36:29;;;;;;;36.86;15.20;;;;;;;-0.56;100.00;95816.00;1030170;28;20492;-69
2022/11/28 00:37:00;;;;;;;36.58;15.50;;;;;;;-0.59;100.00;95818.94;1032034;28;20037;-69
2022/11/28 00:37:30;;;;;;;39.80;15.73;;;;;;;-0.55;100.00;95827.88;1034385;28;20504;-68
2022/11/28 00:38:01;;;;;;;34.83;15.38;;;;;;;-0.55;100.00;95825.31;1024486;28;20081;-68
2022/11/28 00:38:31;;;;;;;48.53;15.98;;;;;;;-0.63;100.00;95812.59;1024834;28;20035;-69
2022/11/28 00:39:02;;;;;;;37.33;16.10;;;;;;;-0.58;100.00;95820.53;1022319;28;20062;-68
2022/11/28 00:39:32;;;;;;;38.90;16.90;;;;;;;-0.60;100.00;95817.38;1022218;28;20027;-69
2022/11/28 00:40:03;;;;;;;38.05;15.30;;;;;;;-0.58;100.00;95825.69;1026131;28;20122;-69
2022/11/28 00:40:33;;;;;;;39.90;15.60;;;;;;;-0.61;100.00;95816.53;1030523;28;20087;-69
2022/11/28 00:41:14;;;;;;;48.35;16.58;;;;;;;-0.62;100.00;95820.13;1038309;28;20041;-68
2022/11/28 00:41:44;;;;;;;36.67;15.85;;;;;;;-0.61;100.00;95815.75;1042685;28;20033;-68
2022/11/28 00:42:19;;;;;;;38.92;16.00;;;;;;;-0.61;100.00;95813.97;1029714;28;20053;-68
2022/11/28 00:42:49;;;;;;;41.74;15.92;;;;;;;-0.59;100.00;95816.38;1033904;28;20488;-68
2022/11/28 00:43:20;;;;;;;41.20;15.80;;;;;;;-0.57;100.00;95816.94;1034575;28;20034;-68
2022/11/28 00:43:51;;;;;;;40.88;16.23;;;;;;;-0.61;100.00;95815.75;1027106;28;20030;-69
2022/11/28 00:44:21;;;;;;;40.65;16.23;;;;;;;-0.61;100.00;95813.19;1030271;28;20365;-69
2022/11/28 00:44:51;;;;;;;37.15;16.85;;;;;;;-0.62;100.00;95820.13;1029894;28;20602;-66
2022/11/28 00:45:22;;;;;;;45.33;16.75;;;;;;;-0.62;100.00;95819.31;1026138;28;20110;-68
2022/11/28 00:45:52;;;;;;;43.55;17.65;;;;;;;-0.59;100.00;95821.53;1034429;28;20029;-69
2022/11/28 00:46:23;;;;;;;45.05;17.85;;;;;;;-0.60;100.00;95825.88;1034315;28;20467;-68
2022/11/28 00:46:53;;;;;;;40.17;16.98;;;;;;;-0.58;100.00;95820.53;1030584;28;20022;-69
2022/11/28 00:47:24;;;;;;;47.40;17.58;;;;;;;-0.57;100.00;95822.94;1038423;28;20455;-68
2022/11/28 00:47:54;;;;;;;47.10;17.65;;;;;;;-0.58;100.00;95820.53;1034096;28;20069;-68
2022/11/28 00:48:25;;;;;;;42.22;17.58;;;;;;;-0.60;100.00;95817.38;1030288;28;20022;-69
2022/11/28 00:48:56;;;;;;;42.33;16.67;;;;;;;-0.59;100.00;95824.88;1026050;28;20015;-69
2022/11/28 00:49:27;;;;;;;39.28;17.12;;;;;;;-0.58;100.00;95816.16;1029879;28;20168;-69
2022/11/28 00:49:57;;;;;;;43.97;16.95;;;;;;;-0.56;100.00;95818.56;1030282;28;20030;-69
2022/11/28 00:50:28;;;;;;;45.35;17.75;;;;;;;-0.53;100.00;95825.91;1034282;28;20021;-69
2022/11/28 00:51:09;;;;;;;45.53;16.77;;;;;;;-0.60;100.00;95818.16;1038216;28;20041;-69
2022/11/28 00:51:39;;;;;;;39.64;16.12;;;;;;;-0.57;100.00;95824.69;1037254;28;20017;-67
2022/11/28 00:52:10;;;;;;;50.72;18.05;;;;;;;-0.55;100.00;95820.16;1038033;28;20033;-69
2022/11/28 00:52:40;;;;;;;52.42;19.05;;;;;;;-0.56;100.00;95824.50;1033478;28;20026;-68
2022/11/28 00:53:11;;;;;;;45.28;17.88;;;;;;;-0.54;100.00;95832.03;1030140;28;20022;-68
2022/11/28 00:53:42;;;;;;;48.75;18.23;;;;;;;-0.52;100.00;95830.06;1033782;28;20018;-69
2022/11/28 00:54:12;;;;;;;42.04;17.42;;;;;;;-0.49;100.00;95829.69;1030224;28;20113;-69
2022/11/28 00:54:42;;;;;;;49.33;17.58;;;;;;;-0.46;100.00;95828.53;1029991;28;20038;-70
2022/11/28 00:55:13;;;;;;;48.80;17.42;;;;;;;-0.47;100.00;95827.72;1025898;28;20058;-70
2022/11/28 00:55:43;;;;;;;44.97;17.75;;;;;;;-0.47;100.00;95827.72;1024937;28;20033;-68
2022/11/28 00:56:16;;;;;;;45.95;17.73;;;;;;;-0.43;100.00;95828.94;1022097;28;20059;-70
2022/11/28 00:56:47;;;;;;;43.60;17.12;;;;;;;-0.39;100.00;95824.19;1026551;28;20065;-70
2022/11/28 00:57:17;;;;;;;39.85;16.65;;;;;;;-0.44;100.00;95827.31;1026037;28;20035;-69
2022/11/28 00:57:47;;;;;;;41.20;16.45;;;;;;;-0.40;100.00;95830.31;1022323;28;20039;-70
2022/11/28 00:58:18;;;;;;;37.33;16.60;;;;;;;-0.43;100.00;95828.94;1021913;28;20057;-67
2022/11/28 00:58:49;;;;;;;43.55;16.63;;;;;;;-0.50;100.00;95820.38;1022661;28;20035;-69
2022/11/28 00:59:19;;;;;;;46.83;17.40;;;;;;;-0.41;100.00;95831.31;1022309;28;20134;-69
2022/11/28 00:59:49;;;;;;;41.35;16.65;;;;;;;-0.39;100.00;95834.50;1026080;28;20042;-70
2022/11/28 01:00:20;;;;;;;40.92;16.77;;;;;;;-0.38;100.00;95829.16;1030062;28;20033;-68
2022/11/28 01:00:51;;;;;;;43.78;17.30;;;;;;;-0.35;100.00;95830.56;1034294;28;20112;-69
2022/11/28 01:01:32;;;;;;;42.65;17.70;;;;;;;-0.36;100.00;95827.19;1033980;28;20084;-70
2022/11/28 01:02:03;;;;;;;53.50;16.52;;;;;;;-0.32;100.00;95825.81;1029976;28;20026;-70
2022/11/28 01:02:33;;;;;;;48.45;18.20;;;;;;;-0.37;100.00;95827.38;1034217;28;20029;-69
2022/11/28 01:03:04;;;;;;;39.05;16.50;;;;;;;-0.39;100.00;95821.63;1033975;28;20046;-69
2022/11/28 01:03:34;;;;;;;39.17;17.00;;;;;;;-0.34;100.00;95821.81;1029996;28;20029;-68
2022/11/28 01:04:07;;;;;;;42.15;16.67;;;;;;;-0.33;100.00;95828.59;1025742;28;20062;-69
2022/11/28 01:04:37;;;;;;;43.12;17.08;;;;;;;-0.34;100.00;95822.63;1026406;28;20045;-69
2022/11/28 01:05:08;;;;;;;38.10;16.30;;;;;;;-0.35;100.00;95815.09;1031607;28;20038;-69
2022/11/28 01:05:40;;;;;;;40.35;16.95;;;;;;;-0.45;100.00;95799.97;1035018;28;20033;-69
2022/11/28 01:06:11;;;;;;;35.14;16.08;;;;;;;-0.38;100.00;95808.53;1034745;28;20061;-70
2022/11/28 01:06:46;;;;;;;39.28;17.73;;;;;;;-0.38;100.00;95808.53;1026749;28;20029;-69
2022/11/28 01:07:16;;;;;;;38.92;16.26;;;;;;;-0.33;100.00;95824.22;1023751;28;20298;-68
2022/11/28 01:07:47;;;;;;;36.42;16.58;;;;;;;-0.30;100.00;95823.84;1027519;28;20038;-69
2022/11/28 01:08:17;;;;;;;40.00;16.27;;;;;;;-0.22;100.00;95829.81;1032132;28;20049;-69
2022/11/28 01:08:47;;;;;;;40.08;16.42;;;;;;;-0.27;100.00;95833.78;1034893;28;20633;-69
2022/11/28 01:09:20;;;;;;;33.50;15.90;;;;;;;-0.34;100.00;95822.63;1035802;28;20052;-70
2022/11/28 01:09:50;;;;;;;34.38;15.58;;;;;;;-0.22;100.00;95834.97;1030827;28;20489;-69
2022/11/28 01:10:20;;;;;;;34.47;16.00;;;;;;;-0.24;100.00;95827.41;1026786;28;20039;-69
2022/11/28 01:10:51;;;;;;;34.47;15.70;;;;;;;-0.18;100.00;95836.19;1030650;28;20166;-69
2022/11/28 01:11:21;;;;;;;37.83;16.23;;;;;;;-0.26;100.00;95837.94;1030938;28;20026;-69
2022/11/28 01:11:52;;;;;;;35.53;15.32;;;;;;;-0.26;100.00;95837.16;1026821;28;20553;-69
2022/11/28 01:12:22;;;;;;;31.85;15.13;;;;;;;-0.22;100.00;95835.78;1026072;28;20030;-68
2022/11/28 01:12:53;;;;;;;41.35;15.85;;;;;;;-0.15;100.00;95838.38;1030821;28;20026;-69
2022/11/28 01:13:23;;;;;;;33.47;15.52;;;;;;;-0.28;100.00;95836.53;1030814;28;20839;-70
2022/11/28 01:13:55;;;;;;;30.58;14.98;;;;;;;-0.32;100.00;95830.97;1038864;28;20033;-68
2022/11/28 01:14:25;;;;;;;33.28;15.36;;;;;;;-0.30;100.00;95833.38;1038463;28;20021;-70
2022/11/28 01:14:57;;;;;;;31.55;16.33;;;;;;;-0.33;100.00;95831.97;1038868;28;20123;-70
2022/11/28 01:15:27;;;;;;;36.14;15.24;;;;;;;-0.29;100.00;95834.94;1038917;28;20163;-69
2022/11/28 01:15:57;;;;;;;37.03;16.27;;;;;;;-0.36;100.00;95819.44;1038639;28;20029;-68
2022/11/28 01:16:29;;;;;;;37.40;15.82;;;;;;;-0.31;100.00;95836.91;1034570;28;20034;-69
2022/11/28 01:16:59;;;;;;;32.76;15.96;;;;;;;-0.33;100.00;95829.38;1030091;28;20030;-69
2022/11/28 01:17:30;;;;;;;32.60;15.05;;;;;;;-0.38;100.00;95836.88;1029050;28;20035;-69
2022/11/28 01:18:01;;;;;;;32.58;14.90;;;;;;;-0.41;100.00;95832.09;1026832;28;20035;-70
2022/11/28 01:18:31;;;;;;;32.52;15.44;;;;;;;-0.43;100.00;95823.78;1026865;28;20498;-69
2022/11/28 01:19:02;;;;;;;32.72;16.08;;;;;;;-0.40;100.00;95828.56;1026584;28;20038;-70
2022/11/28 01:19:32;;;;;;;32.53;15.88;;;;;;;-0.37;100.00;95823.03;1029662;28;20022;-69
2022/11/28 01:20:04;;;;;;;31.88;14.70;;;;;;;-0.43;100.00;95813.47;1030607;28;20030;-68
2022/11/28 01:20:34;;;;;;;33.74;15.00;;;;;;;-0.40;100.00;95817.44;1030781;28;20026;-68
2022/11/28 01:21:05;;;;;;;31.77;14.52;;;;;;;-0.32;100.00;95819.88;1030574;28;20137;-70
2022/11/28 01:21:35;;;;;;;35.22;15.73;;;;;;;-0.31;100.00;95821.44;1030734;28;20547;-70
2022/11/28 01:22:06;;;;;;;32.28;14.90;;;;;;;-0.35;100.00;95815.88;1030863;28;20081;-69
2022/11/28 01:22:36;;;;;;;33.72;15.68;;;;;;;-0.31;100.00;95822.22;1029472;28;20038;-69
2022/11/28 01:23:07;;;;;;;33.17;15.63;;;;;;;-0.38;100.00;95816.25;1034784;28;20492;-69
2022/11/28 01:23:37;;;;;;;32.50;16.23;;;;;;;-0.37;100.00;95812.72;1030970;28;20120;-68
2022/11/28 01:24:08;;;;;;;32.38;15.20;;;;;;;-0.35;100.00;95815.88;1031094;28;20040;-69
2022/11/28 01:24:38;;;;;;;33.88;15.52;;;;;;;-0.33;100.00;95813.91;1030446;28;20029;-68
2022/11/28 01:25:09;;;;;;;33.75;16.30;;;;;;;-0.33;100.00;95819.06;1030596;28;20069;-69
2022/11/28 01:25:39;;;;;;;33.42;15.88;;;;;;;-0.33;100.00;95807.97;1030770;28;20600;-67
2022/11/28 01:26:14;;;;;;;30.75;15.43;;;;;;;-0.29;100.00;95819.47;1034807;28;20033;-68
2022/11/28 01:26:44;;;;;;;34.60;15.98;;;;;;;-0.28;100.00;95819.28;1028092;28;20038;-69
2022/11/28 01:27:14;;;;;;;36.53;15.82;;;;;;;-0.30;100.00;95823.06;1026518;28;20433;-68
2022/11/28 01:27:45;;;;;;;37.67;16.30;;;;;;;-0.31;100.00;95814.50;1026591;28;20125;-70
2022/11/28 01:28:15;;;;;;;37.55;15.88;;;;;;;-0.28;100.00;95827.00;1025684;28;20023;-70
2022/11/28 01:28:46;;;;;;;31.08;15.15;;;;;;;-0.29;100.00;95819.47;1026108;28;20050;-70
2022/11/28 01:29:16;;;;;;;32.00;15.10;;;;;;;-0.28;100.00;95828.78;1030435;28;20073;-70
2022/11/28 01:29:47;;;;;;;32.05;15.50;;;;;;;-0.38;100.00;95815.47;1034062;28;20064;-70
2022/11/28 01:30:18;;;;;;;29.50;15.14;;;;;;;-0.34;100.00;95825.19;1038046;28;20057;-70
2022/11/28 01:30:48;;;;;;;31.35;14.82;;;;;;;-0.32;100.00;95820.66;1034736;28;20026;-69
2022/11/28 01:31:21;;;;;;;31.08;14.75;;;;;;;-0.37;100.00;95815.28;1036396;28;20462;-68
2022/11/28 01:31:51;;;;;;;30.96;15.42;;;;;;;-0.31;100.00;95821.44;1032561;28;20105;-70
2022/11/28 01:32:22;;;;;;;32.75;16.25;;;;;;;-0.39;100.00;95812.09;1034970;28;20033;-68
2022/11/28 01:32:52;;;;;;;32.35;14.88;;;;;;;-0.32;100.00;95819.88;1036959;28;20045;-69
2022/11/28 01:33:22;;;;;;;29.10;15.07;;;;;;;-0.34;100.00;95822.63;1032167;28;20724;-69
2022/11/28 01:33:53;;;;;;;32.08;15.38;;;;;;;-0.31;100.00;95817.06;1031915;28;20022;-68
2022/11/28 01:34:23;;;;;;;34.47;15.70;;;;;;;-0.31;100.00;95819.66;1026711;28;20031;-69
2022/11/28 01:34:54;;;;;;;32.35;15.52;;;;;;;-0.29;100.00;95812.53;1033585;28;20022;-70
2022/11/28 01:35:24;;;;;;;29.98;15.38;;;;;;;-0.30;100.00;95808.38;1038786;28;20076;-70
2022/11/28 01:35:55;;;;;;;32.90;15.55;;;;;;;-0.28;100.00;95801.22;1029854;28;20226;-69
2022/11/28 01:36:26;;;;;;;32.88;15.77;;;;;;;-0.30;100.00;95803.22;1026729;28;20027;-69
2022/11/28 01:36:56;;;;;;;32.63;15.52;;;;;;;-0.39;100.00;95796.63;1026487;28;20314;-67
2022/11/28 01:37:30;;;;;;;31.85;15.20;;;;;;;-0.30;100.00;95805.00;1031054;28;20026;-68
2022/11/28 01:38:00;;;;;;;34.74;15.52;;;;;;;-0.34;100.00;95798.63;1035159;28;20637;-70
2022/11/28 01:38:31;;;;;;;33.92;15.57;;;;;;;-0.30;100.00;95795.50;1034758;28;20030;-70
2022/11/28 01:39:01;;;;;;;33.88;15.93;;;;;;;-0.35;100.00;95797.03;1031268;28;20817;-68
2022/11/28 01:39:32;;;;;;;33.88;14.85;;;;;;;-0.32;100.00;95791.50;1030971;28;20082;-69
2022/11/28 01:40:03;;;;;;;32.47;14.90;;;;;;;-0.37;100.00;95786.94;1035216;28;20784;-70
2022/11/28 01:40:33;;;;;;;33.78;15.32;;;;;;;-0.35;100.00;95787.53;1035129;28;20030;-69
2022/11/28 01:41:04;;;;;;;32.95;15.23;;;;;;;-0.34;100.00;95785.72;1038905;28;20108;-69
2022/11/28 01:41:34;;;;;;;31.02;15.07;;;;;;;-0.39;100.00;95791.47;1034905;28;20026;-68
2022/11/28 01:42:05;;;;;;;34.15;15.00;;;;;;;-0.36;100.00;95783.38;1030884;28;20089;-67
2022/11/28 01:42:35;;;;;;;35.00;15.02;;;;;;;-0.37;100.00;95786.94;1030248;28;20026;-69
2022/11/28 01:43:08;;;;;;;31.30;15.02;;;;;;;-0.35;100.00;95779.00;1031179;28;20042;-68
2022/11/28 01:44:01;;;;;;;32.34;15.48;;;;;;;-0.41;100.00;95772.81;1035231;28;20029;-69
2022/11/28 01:44:31;;;;;;;35.92;15.66;;;;;;;-0.39;100.00;95778.59;1030276;28;20030;-68
2022/11/28 01:45:24;;;;;;;29.33;14.88;;;;;;;-0.49;100.00;95767.84;1030889;28;20523;-69
2022/11/28 01:45:55;;;;;;;32.88;14.02;;;;;;;-0.38;100.00;95785.31;1027015;28;20019;-69
2022/11/28 01:46:25;;;;;;;34.03;14.80;;;;;;;-0.38;100.00;95779.38;1036824;28;20079;-70
2022/11/28 01:46:56;;;;;;;37.47;16.63;;;;;;;-0.41;100.00;95784.91;1041823;28;20414;-70
2022/11/28 01:47:26;;;;;;;32.03;14.65;;;;;;;-0.42;100.00;95778.19;1037057;28;20082;-69
2022/11/28 01:47:59;;;;;;;35.05;16.25;;;;;;;-0.38;100.00;95780.16;1039071;28;20013;-69
2022/11/28 01:48:39;;;;;;;34.20;15.04;;;;;;;-0.40;100.00;95787.31;1030938;28;20090;-68
2022/11/28 01:49:25;;;;;;;34.85;15.55;;;;;;;-0.45;100.00;95773.41;1025356;28;20054;-69
2022/11/28 01:49:55;;;;;;;34.02;15.86;;;;;;;-0.38;100.00;95785.31;1029906;28;20031;-68
2022/11/28 01:50:26;;;;;;;35.22;15.52;;;;;;;-0.38;100.00;95782.75;1030991;28;20480;-70
2022/11/28 01:50:58;;;;;;;35.88;15.80;;;;;;;-0.38;100.00;95782.75;1028910;28;20030;-68
2022/11/28 01:51:29;;;;;;;35.22;16.20;;;;;;;-0.35;100.00;95790.09;1023145;28;20019;-70
2022/11/28 01:52:03;;;;;;;37.60;17.33;;;;;;;-0.37;100.00;95797.25;1022766;29;20481;-67
2022/11/28 01:52:36;;;;;;;33.70;16.20;;;;;;;-0.33;100.00;95802.81;1021094;28;20019;-69
2022/11/28 01:53:08;;;;;;;36.84;14.94;;;;;;;-0.38;100.00;95794.84;1026944;28;20397;-70
2022/11/28 01:53:40;;;;;;;38.10;16.52;;;;;;;-0.40;100.00;95789.91;1026108;28;20015;-69
2022/11/28 01:54:11;;;;;;;33.26;16.18;;;;;;;-0.41;100.00;95788.28;1022985;29;20035;-69
2022/11/28 01:54:43;;;;;;;33.94;16.02;;;;;;;-0.42;100.00;95789.28;1030837;28;20408;-69
2022/11/28 01:55:14;;;;;;;30.90;15.24;;;;;;;-0.41;100.00;95798.59;1030857;28;20065;-69
2022/11/28 01:55:55;;;;;;;36.50;16.83;;;;;;;-0.46;100.00;95782.13;1030848;28;20431;-70
2022/11/28 01:56:27;;;;;;;37.02;16.38;;;;;;;-0.39;100.00;95791.47;1021127;28;20127;-69
2022/11/28 01:57:00;;;;;;;36.72;16.34;;;;;;;-0.40;100.00;95792.47;1030341;28;20037;-70
2022/11/28 01:57:31;;;;;;;41.98;16.66;;;;;;;-0.41;100.00;95792.66;1030660;28;20037;-68
2022/11/28 01:58:01;;;;;;;33.72;16.48;;;;;;;-0.42;100.00;95799.59;1026681;28;20031;-68
2022/11/28 01:58:32;;;;;;;34.97;16.25;;;;;;;-0.41;100.00;95800.38;1027238;28;20026;-68
2022/11/28 01:59:03;;;;;;;32.35;15.82;;;;;;;-0.40;100.00;95797.63;1032285;28;20017;-69
2022/11/28 01:59:37;;;;;;;35.44;16.60;;;;;;;-0.39;100.00;95799.22;1029490;28;20031;-69
2022/11/28 02:00:12;;;;;;;41.48;17.26;;;;;;;-0.39;100.00;95788.09;1024774;28;20408;-69
2022/11/28 02:00:43;;;;;;;39.82;16.34;;;;;;;-0.35;100.00;95789.31;1021098;29;20075;-69
2022/11/28 02:01:13;;;;;;;37.13;16.10;;;;;;;-0.33;100.00;95782.19;1022922;29;20107;-69
2022/11/28 02:01:44;;;;;;;34.05;15.98;;;;;;;-0.39;100.00;95767.50;1028330;28;20029;-68
2022/11/28 02:02:18;;;;;;;38.13;15.20;;;;;;;-0.32;100.00;95783.78;1026215;28;20018;-68
2022/11/28 02:02:57;;;;;;;37.10;16.18;;;;;;;-0.32;100.00;95781.19;1025253;28;20019;-69
2022/11/28 02:03:34;;;;;;;33.28;16.06;;;;;;;-0.38;100.00;95777.59;1025272;28;20019;-69
2022/11/28 02:04:05;;;;;;;40.72;16.98;;;;;;;-0.38;100.00;95785.31;1028908;28;20022;-69
2022/11/28 02:04:35;;;;;;;31.50;15.70;;;;;;;-0.40;100.00;95783.91;1028038;28;20512;-71
2022/11/28 02:05:06;;;;;;;34.30;15.52;;;;;;;-0.39;100.00;95788.91;1027914;28;20019;-69
2022/11/28 02:05:37;;;;;;;34.74;16.26;;;;;;;-0.37;100.00;95783.53;1027331;28;20019;-69
2022/11/28 02:06:08;;;;;;;35.10;15.70;;;;;;;-0.39;100.00;95783.75;1031027;28;20038;-68
2022/11/28 02:06:40;;;;;;;35.32;16.48;;;;;;;-0.40;100.00;95781.34;1034762;28;20108;-70
2022/11/28 02:07:10;;;;;;;36.86;16.44;;;;;;;-0.45;100.00;95766.47;1030848;28;20073;-69
2022/11/28 02:07:41;;;;;;;35.50;15.75;;;;;;;-0.42;100.00;95773.81;1026767;28;20031;-68
2022/11/28 02:08:11;;;;;;;37.15;16.15;;;;;;;-0.42;100.00;95778.97;1023046;28;20026;-69
2022/11/28 02:08:42;;;;;;;38.50;16.30;;;;;;;-0.40;100.00;95782.16;1026815;28;20064;-69
2022/11/28 02:09:14;;;;;;;34.47;16.25;;;;;;;-0.44;100.00;95775.78;1031093;28;20038;-69
2022/11/28 02:09:44;;;;;;;39.94;16.80;;;;;;;-0.48;100.00;95769.44;1027349;28;20027;-70
2022/11/28 02:10:23;;;;;;;34.67;15.80;;;;;;;-0.34;100.00;95789.09;1026713;28;20058;-69
2022/11/28 02:11:16;;;;;;;41.24;16.36;;;;;;;-0.35;100.00;95795.25;1022747;29;20026;-69
2022/11/28 02:12:43;;;;;;;38.92;16.68;;;;;;;-0.34;100.00;95799.41;1035050;28;20538;-70
2022/11/28 02:13:34;;;;;;;35.80;14.68;;;;;;;-0.36;100.00;95778.22;1038631;28;20063;-68
2022/11/28 02:14:27;;;;;;;36.38;15.96;;;;;;;-0.33;100.00;95777.03;1039243;28;20103;-69
2022/11/28 02:15:04;;;;;;;34.66;15.66;;;;;;;-0.29;100.00;95786.75;1038601;28;20038;-70
2022/11/28 02:15:40;;;;;;;36.40;16.82;;;;;;;-0.27;100.00;95787.38;1038615;28;20037;-69
2022/11/28 02:16:25;;;;;;;44.28;18.14;;;;;;;-0.27;100.00;95797.69;1034579;28;20026;-69
2022/11/28 02:17:07;;;;;;;41.40;17.34;;;;;;;-0.28;100.00;95798.66;1034057;28;20040;-69
2022/11/28 02:18:00;;;;;;;35.68;16.44;;;;;;;-0.35;100.00;95797.84;1033712;28;20042;-69
2022/11/28 02:18:39;;;;;;;39.14;16.20;;;;;;;-0.39;100.00;95799.22;1034485;28;20033;-69
2022/11/28 02:19:51;;;;;;;43.78;16.94;;;;;;;-0.33;100.00;95798.44;1034517;28;20034;-68
2022/11/28 02:20:57;;;;;;;36.78;15.84;;;;;;;-0.31;100.00;95778.41;1037187;28;20057;-69
2022/11/28 02:21:42;;;;;;;35.68;16.06;;;;;;;-0.32;100.00;95755.41;1038631;28;20029;-69
2022/11/28 02:22:33;;;;;;;37.60;16.00;;;;;;;-0.36;100.00;95731.81;1038396;28;20136;-68
2022/11/28 02:23:22;;;;;;;38.48;15.64;;;;;;;-0.34;100.00;95718.72;1037283;28;20025;-69
2022/11/28 02:24:01;;;;;;;40.08;16.76;;;;;;;-0.38;100.00;95728.63;1033502;28;20046;-69
2022/11/28 02:24:53;;;;;;;40.54;16.48;;;;;;;-0.30;100.00;95749.09;1030778;28;20057;-68
2022/11/28 02:25:48;;;;;;;40.22;16.54;;;;;;;-0.31;100.00;95764.72;1032122;28;20026;-69
2022/11/28 02:26:40;;;;;;;43.38;16.06;;;;;;;-0.33;100.00;95771.88;1039408;28;20053;-70
2022/11/28 02:27:22;;;;;;;40.62;15.98;;;;;;;-0.34;100.00;95762.53;1036364;28;20460;-70
2022/11/28 02:27:55;;;;;;;42.32;16.24;;;;;;;-0.35;100.00;95764.31;1036912;28;20025;-68
2022/11/28 02:28:47;;;;;;;39.16;16.72;;;;;;;-0.35;100.00;95764.31;1035973;28;20072;-69
2022/11/28 02:29:26;;;;;;;44.62;17.30;;;;;;;-0.29;100.00;95773.88;1041349;28;20435;-68
2022/11/28 02:30:18;;;;;;;43.62;17.06;;;;;;;-0.33;100.00;95771.88;1039047;28;20032;-69